sensor_id;sensor_type;location;lat;lon;timestamp;temperature;humidity
8611;DHT22;4343;53.648;10.098;2024-03-06T00:00:04;5.20;99.90
8611;DHT22;4343;53.648;10.098;2024-03-06T00:02:30;5.20;99.90
8611;DHT22;4343;53.648;10.098;2024-03-06T00:04:56;5.20;99.90
8611;DHT22;4343;53.648;10.098;2024-03-06T00:07:21;5.20;99.90
8611;DHT22;4343;53.648;10.098;2024-03-06T00:09:46;5.20;99.90
8611;DHT22;4343;53.648;10.098;2024-03-06T00:12:12;5.20;99.90
8611;DHT22;4343;53.648;10.098;2024-03-06T00:14:37;5.20;99.90
8611;DHT22;4343;53.648;10.098;2024-03-06T00:17:03;5.20;99.90
8611;DHT22;4343;53.648;10.098;2024-03-06T00:19:29;5.20;99.90
8611;DHT22;4343;53.648;10.098;2024-03-06T00:21:55;5.20;99.90
8611;DHT22;4343;53.648;10.098;2024-03-06T00:24:20;5.20;99.90
8611;DHT22;4343;53.648;10.098;2024-03-06T00:26:48;5.20;99.90
8611;DHT22;4343;53.648;10.098;2024-03-06T00:29:13;5.20;99.90
8611;DHT22;4343;53.648;10.098;2024-03-06T00:31:43;5.20;99.90
8611;DHT22;4343;53.648;10.098;2024-03-06T00:34:09;5.20;99.90
8611;DHT22;4343;53.648;10.098;2024-03-06T00:36:35;5.10;99.90
8611;DHT22;4343;53.648;10.098;2024-03-06T00:39:00;5.10;99.90
8611;DHT22;4343;53.648;10.098;2024-03-06T00:41:26;5.10;99.90
8611;DHT22;4343;53.648;10.098;2024-03-06T00:43:51;5.10;99.90
8611;DHT22;4343;53.648;10.098;2024-03-06T00:46:16;5.10;99.90
8611;DHT22;4343;53.648;10.098;2024-03-06T00:48:42;5.10;99.90
8611;DHT22;4343;53.648;10.098;2024-03-06T00:51:07;5.10;99.90
8611;DHT22;4343;53.648;10.098;2024-03-06T00:53:34;5.10;99.90
8611;DHT22;4343;53.648;10.098;2024-03-06T00:56:00;5.10;99.90
8611;DHT22;4343;53.648;10.098;2024-03-06T00:58:25;5.10;99.90
8611;DHT22;4343;53.648;10.098;2024-03-06T01:00:51;5.10;99.90
8611;DHT22;4343;53.648;10.098;2024-03-06T01:03:16;5.10;99.90
8611;DHT22;4343;53.648;10.098;2024-03-06T01:05:42;5.10;99.90
8611;DHT22;4343;53.648;10.098;2024-03-06T01:08:07;5.00;99.90
8611;DHT22;4343;53.648;10.098;2024-03-06T01:10:32;5.00;99.90
8611;DHT22;4343;53.648;10.098;2024-03-06T01:12:58;5.00;99.90
8611;DHT22;4343;53.648;10.098;2024-03-06T01:15:23;5.00;99.90
8611;DHT22;4343;53.648;10.098;2024-03-06T01:17:49;5.00;99.90
8611;DHT22;4343;53.648;10.098;2024-03-06T01:20:15;5.00;99.90
8611;DHT22;4343;53.648;10.098;2024-03-06T01:22:41;5.00;99.90
8611;DHT22;4343;53.648;10.098;2024-03-06T01:25:06;5.00;99.90
8611;DHT22;4343;53.648;10.098;2024-03-06T01:27:32;5.00;99.90
8611;DHT22;4343;53.648;10.098;2024-03-06T01:29:58;5.00;99.90
8611;DHT22;4343;53.648;10.098;2024-03-06T01:32:23;5.00;99.90
8611;DHT22;4343;53.648;10.098;2024-03-06T01:34:48;5.00;99.90
8611;DHT22;4343;53.648;10.098;2024-03-06T01:37:14;5.00;99.90
8611;DHT22;4343;53.648;10.098;2024-03-06T01:39:39;5.00;99.90
8611;DHT22;4343;53.648;10.098;2024-03-06T01:42:05;5.00;99.90
8611;DHT22;4343;53.648;10.098;2024-03-06T01:44:30;5.00;99.90
8611;DHT22;4343;53.648;10.098;2024-03-06T01:46:56;5.00;99.90
8611;DHT22;4343;53.648;10.098;2024-03-06T01:49:23;5.00;99.90
8611;DHT22;4343;53.648;10.098;2024-03-06T01:51:50;4.90;99.90
8611;DHT22;4343;53.648;10.098;2024-03-06T01:54:16;4.90;99.90
8611;DHT22;4343;53.648;10.098;2024-03-06T01:56:45;4.90;99.90
8611;DHT22;4343;53.648;10.098;2024-03-06T01:59:15;4.90;99.90
8611;DHT22;4343;53.648;10.098;2024-03-06T02:01:41;4.90;99.90
8611;DHT22;4343;53.648;10.098;2024-03-06T02:04:06;4.90;99.90
8611;DHT22;4343;53.648;10.098;2024-03-06T02:06:32;4.90;99.90
8611;DHT22;4343;53.648;10.098;2024-03-06T02:08:57;4.90;99.90
8611;DHT22;4343;53.648;10.098;2024-03-06T02:11:23;4.90;99.90
8611;DHT22;4343;53.648;10.098;2024-03-06T02:13:49;4.80;99.90
8611;DHT22;4343;53.648;10.098;2024-03-06T02:16:14;4.90;99.90
8611;DHT22;4343;53.648;10.098;2024-03-06T02:18:51;4.90;99.90
8611;DHT22;4343;53.648;10.098;2024-03-06T02:21:16;4.80;99.90
8611;DHT22;4343;53.648;10.098;2024-03-06T02:23:42;4.90;99.90
8611;DHT22;4343;53.648;10.098;2024-03-06T02:26:07;4.90;99.90
8611;DHT22;4343;53.648;10.098;2024-03-06T02:28:32;4.80;99.90
8611;DHT22;4343;53.648;10.098;2024-03-06T02:31:00;4.80;99.90
8611;DHT22;4343;53.648;10.098;2024-03-06T02:33:25;4.80;99.90
8611;DHT22;4343;53.648;10.098;2024-03-06T02:35:51;4.80;99.90
8611;DHT22;4343;53.648;10.098;2024-03-06T02:38:16;4.80;99.90
8611;DHT22;4343;53.648;10.098;2024-03-06T02:40:43;4.80;99.90
8611;DHT22;4343;53.648;10.098;2024-03-06T02:43:08;4.80;99.90
8611;DHT22;4343;53.648;10.098;2024-03-06T02:45:33;4.80;99.90
8611;DHT22;4343;53.648;10.098;2024-03-06T02:47:59;4.80;99.90
8611;DHT22;4343;53.648;10.098;2024-03-06T02:50:24;4.80;99.90
8611;DHT22;4343;53.648;10.098;2024-03-06T02:52:50;4.80;99.90
8611;DHT22;4343;53.648;10.098;2024-03-06T02:55:17;4.80;99.90
8611;DHT22;4343;53.648;10.098;2024-03-06T02:57:42;4.80;99.90
8611;DHT22;4343;53.648;10.098;2024-03-06T03:00:08;4.80;99.90
8611;DHT22;4343;53.648;10.098;2024-03-06T03:02:38;4.70;99.90
8611;DHT22;4343;53.648;10.098;2024-03-06T03:05:04;4.80;99.90
8611;DHT22;4343;53.648;10.098;2024-03-06T03:07:30;4.80;99.90
8611;DHT22;4343;53.648;10.098;2024-03-06T03:09:55;4.70;99.90
8611;DHT22;4343;53.648;10.098;2024-03-06T03:12:20;4.70;99.90
8611;DHT22;4343;53.648;10.098;2024-03-06T03:14:46;4.70;99.90
8611;DHT22;4343;53.648;10.098;2024-03-06T03:17:12;4.70;99.90
8611;DHT22;4343;53.648;10.098;2024-03-06T03:19:38;4.70;99.90
8611;DHT22;4343;53.648;10.098;2024-03-06T03:22:05;4.70;99.90
8611;DHT22;4343;53.648;10.098;2024-03-06T03:24:30;4.70;99.90
8611;DHT22;4343;53.648;10.098;2024-03-06T03:26:56;4.70;99.90
8611;DHT22;4343;53.648;10.098;2024-03-06T03:29:21;4.70;99.90
8611;DHT22;4343;53.648;10.098;2024-03-06T03:31:47;4.70;99.90
8611;DHT22;4343;53.648;10.098;2024-03-06T03:34:13;4.70;99.90
8611;DHT22;4343;53.648;10.098;2024-03-06T03:36:41;4.70;99.90
8611;DHT22;4343;53.648;10.098;2024-03-06T03:39:07;4.70;99.90
8611;DHT22;4343;53.648;10.098;2024-03-06T03:41:47;4.70;99.90
8611;DHT22;4343;53.648;10.098;2024-03-06T03:44:13;4.70;99.90
8611;DHT22;4343;53.648;10.098;2024-03-06T03:46:39;4.70;99.90
8611;DHT22;4343;53.648;10.098;2024-03-06T03:49:04;4.70;99.90
8611;DHT22;4343;53.648;10.098;2024-03-06T03:51:30;4.70;99.90
8611;DHT22;4343;53.648;10.098;2024-03-06T03:53:55;4.70;99.90
8611;DHT22;4343;53.648;10.098;2024-03-06T03:56:21;4.70;99.90
8611;DHT22;4343;53.648;10.098;2024-03-06T03:58:47;4.70;99.90
8611;DHT22;4343;53.648;10.098;2024-03-06T04:01:12;4.70;99.90
8611;DHT22;4343;53.648;10.098;2024-03-06T04:03:38;4.70;99.90
8611;DHT22;4343;53.648;10.098;2024-03-06T04:06:03;4.60;99.90
8611;DHT22;4343;53.648;10.098;2024-03-06T04:08:29;4.60;99.90
8611;DHT22;4343;53.648;10.098;2024-03-06T04:10:54;4.70;99.90
8611;DHT22;4343;53.648;10.098;2024-03-06T04:13:20;4.70;99.90
8611;DHT22;4343;53.648;10.098;2024-03-06T04:15:46;4.60;99.90
8611;DHT22;4343;53.648;10.098;2024-03-06T04:18:11;4.70;99.90
8611;DHT22;4343;53.648;10.098;2024-03-06T04:20:37;4.60;99.90
8611;DHT22;4343;53.648;10.098;2024-03-06T04:23:02;4.60;99.90
8611;DHT22;4343;53.648;10.098;2024-03-06T04:25:28;4.60;99.90
8611;DHT22;4343;53.648;10.098;2024-03-06T04:27:54;4.60;99.90
8611;DHT22;4343;53.648;10.098;2024-03-06T04:30:19;4.60;99.90
8611;DHT22;4343;53.648;10.098;2024-03-06T04:32:46;4.70;99.90
8611;DHT22;4343;53.648;10.098;2024-03-06T04:35:11;4.70;99.90
8611;DHT22;4343;53.648;10.098;2024-03-06T04:37:37;4.70;99.90
8611;DHT22;4343;53.648;10.098;2024-03-06T04:40:03;4.60;99.90
8611;DHT22;4343;53.648;10.098;2024-03-06T04:42:32;4.70;99.90
8611;DHT22;4343;53.648;10.098;2024-03-06T04:44:57;4.60;99.90
8611;DHT22;4343;53.648;10.098;2024-03-06T04:47:23;4.60;99.90
8611;DHT22;4343;53.648;10.098;2024-03-06T04:49:49;4.60;99.90
8611;DHT22;4343;53.648;10.098;2024-03-06T04:52:15;4.60;99.90
8611;DHT22;4343;53.648;10.098;2024-03-06T04:54:40;4.50;99.90
8611;DHT22;4343;53.648;10.098;2024-03-06T04:57:06;4.50;99.90
8611;DHT22;4343;53.648;10.098;2024-03-06T04:59:31;4.50;99.90
8611;DHT22;4343;53.648;10.098;2024-03-06T05:01:56;4.50;99.90
8611;DHT22;4343;53.648;10.098;2024-03-06T05:04:22;4.40;99.90
8611;DHT22;4343;53.648;10.098;2024-03-06T05:06:47;4.40;99.90
8611;DHT22;4343;53.648;10.098;2024-03-06T05:09:13;4.40;99.90
8611;DHT22;4343;53.648;10.098;2024-03-06T05:11:40;4.30;99.90
8611;DHT22;4343;53.648;10.098;2024-03-06T05:14:05;4.30;99.90
8611;DHT22;4343;53.648;10.098;2024-03-06T05:16:31;4.30;99.90
8611;DHT22;4343;53.648;10.098;2024-03-06T05:18:56;4.30;99.90
8611;DHT22;4343;53.648;10.098;2024-03-06T05:21:21;4.20;99.90
8611;DHT22;4343;53.648;10.098;2024-03-06T05:23:50;4.20;99.90
8611;DHT22;4343;53.648;10.098;2024-03-06T05:26:15;4.20;99.90
8611;DHT22;4343;53.648;10.098;2024-03-06T05:28:41;4.20;99.90
8611;DHT22;4343;53.648;10.098;2024-03-06T05:31:15;4.10;99.90
8611;DHT22;4343;53.648;10.098;2024-03-06T05:33:41;4.10;99.90
8611;DHT22;4343;53.648;10.098;2024-03-06T05:36:07;4.00;99.90
8611;DHT22;4343;53.648;10.098;2024-03-06T05:38:32;4.00;99.90
8611;DHT22;4343;53.648;10.098;2024-03-06T05:40:58;3.90;99.90
8611;DHT22;4343;53.648;10.098;2024-03-06T05:43:23;3.90;99.90
8611;DHT22;4343;53.648;10.098;2024-03-06T05:45:49;3.80;99.90
8611;DHT22;4343;53.648;10.098;2024-03-06T05:48:14;3.80;99.90
8611;DHT22;4343;53.648;10.098;2024-03-06T05:50:40;3.80;99.90
8611;DHT22;4343;53.648;10.098;2024-03-06T05:53:05;3.70;99.90
8611;DHT22;4343;53.648;10.098;2024-03-06T05:55:31;3.70;99.90
8611;DHT22;4343;53.648;10.098;2024-03-06T05:57:57;3.70;99.90
8611;DHT22;4343;53.648;10.098;2024-03-06T06:00:22;3.60;99.90
8611;DHT22;4343;53.648;10.098;2024-03-06T06:02:48;3.60;99.90
8611;DHT22;4343;53.648;10.098;2024-03-06T06:05:13;3.60;99.90
8611;DHT22;4343;53.648;10.098;2024-03-06T06:07:39;3.60;99.90
8611;DHT22;4343;53.648;10.098;2024-03-06T06:10:04;3.50;99.90
8611;DHT22;4343;53.648;10.098;2024-03-06T06:12:33;3.50;99.90
8611;DHT22;4343;53.648;10.098;2024-03-06T06:14:59;3.40;99.90
8611;DHT22;4343;53.648;10.098;2024-03-06T06:17:24;3.40;99.90
8611;DHT22;4343;53.648;10.098;2024-03-06T06:19:50;3.40;99.90
8611;DHT22;4343;53.648;10.098;2024-03-06T06:22:16;3.40;99.90
8611;DHT22;4343;53.648;10.098;2024-03-06T06:24:41;3.30;99.90
8611;DHT22;4343;53.648;10.098;2024-03-06T06:27:07;3.30;99.90
8611;DHT22;4343;53.648;10.098;2024-03-06T06:29:33;3.30;99.90
8611;DHT22;4343;53.648;10.098;2024-03-06T06:31:59;3.30;99.90
8611;DHT22;4343;53.648;10.098;2024-03-06T06:34:24;3.30;99.90
8611;DHT22;4343;53.648;10.098;2024-03-06T06:36:53;3.20;99.90
8611;DHT22;4343;53.648;10.098;2024-03-06T06:39:18;3.20;99.90
8611;DHT22;4343;53.648;10.098;2024-03-06T06:41:44;3.20;99.90
8611;DHT22;4343;53.648;10.098;2024-03-06T06:44:09;3.20;99.90
8611;DHT22;4343;53.648;10.098;2024-03-06T06:46:35;3.20;99.90
8611;DHT22;4343;53.648;10.098;2024-03-06T06:49:00;3.20;99.90
8611;DHT22;4343;53.648;10.098;2024-03-06T06:51:26;3.20;99.90
8611;DHT22;4343;53.648;10.098;2024-03-06T06:53:51;3.20;99.90
8611;DHT22;4343;53.648;10.098;2024-03-06T06:56:16;3.30;99.90
8611;DHT22;4343;53.648;10.098;2024-03-06T06:58:42;3.30;99.90
8611;DHT22;4343;53.648;10.098;2024-03-06T07:01:08;3.30;99.90
8611;DHT22;4343;53.648;10.098;2024-03-06T07:03:35;3.30;99.90
8611;DHT22;4343;53.648;10.098;2024-03-06T07:06:00;3.40;99.90
8611;DHT22;4343;53.648;10.098;2024-03-06T07:08:26;3.40;99.90
8611;DHT22;4343;53.648;10.098;2024-03-06T07:10:51;3.50;99.90
8611;DHT22;4343;53.648;10.098;2024-03-06T07:13:20;3.50;99.90
8611;DHT22;4343;53.648;10.098;2024-03-06T07:15:45;3.60;99.90
8611;DHT22;4343;53.648;10.098;2024-03-06T07:18:11;3.60;99.90
8611;DHT22;4343;53.648;10.098;2024-03-06T07:20:36;3.70;99.90
8611;DHT22;4343;53.648;10.098;2024-03-06T07:23:02;3.80;99.90
8611;DHT22;4343;53.648;10.098;2024-03-06T07:25:27;3.90;99.90
8611;DHT22;4343;53.648;10.098;2024-03-06T07:27:53;4.00;99.90
8611;DHT22;4343;53.648;10.098;2024-03-06T07:30:18;4.10;99.90
8611;DHT22;4343;53.648;10.098;2024-03-06T07:32:44;4.20;99.90
8611;DHT22;4343;53.648;10.098;2024-03-06T07:35:09;4.20;99.90
8611;DHT22;4343;53.648;10.098;2024-03-06T07:37:35;4.40;99.90
8611;DHT22;4343;53.648;10.098;2024-03-06T07:40:00;4.50;99.90
8611;DHT22;4343;53.648;10.098;2024-03-06T07:42:26;4.60;99.90
8611;DHT22;4343;53.648;10.098;2024-03-06T07:44:51;4.70;99.90
8611;DHT22;4343;53.648;10.098;2024-03-06T07:47:17;4.80;99.90
8611;DHT22;4343;53.648;10.098;2024-03-06T07:49:42;4.90;99.90
8611;DHT22;4343;53.648;10.098;2024-03-06T07:52:10;5.00;99.90
8611;DHT22;4343;53.648;10.098;2024-03-06T07:54:35;5.10;99.90
8611;DHT22;4343;53.648;10.098;2024-03-06T07:57:00;5.20;99.90
8611;DHT22;4343;53.648;10.098;2024-03-06T07:59:26;5.30;99.90
8611;DHT22;4343;53.648;10.098;2024-03-06T08:01:52;5.40;99.90
8611;DHT22;4343;53.648;10.098;2024-03-06T08:04:17;5.50;99.90
8611;DHT22;4343;53.648;10.098;2024-03-06T08:06:43;5.70;99.90
8611;DHT22;4343;53.648;10.098;2024-03-06T08:09:08;5.80;99.90
8611;DHT22;4343;53.648;10.098;2024-03-06T08:11:34;5.80;99.90
8611;DHT22;4343;53.648;10.098;2024-03-06T08:14:00;5.90;99.90
8611;DHT22;4343;53.648;10.098;2024-03-06T08:16:27;6.10;99.90
8611;DHT22;4343;53.648;10.098;2024-03-06T08:18:52;6.20;99.90
8611;DHT22;4343;53.648;10.098;2024-03-06T08:21:18;6.20;99.90
8611;DHT22;4343;53.648;10.098;2024-03-06T08:23:45;6.30;99.90
8611;DHT22;4343;53.648;10.098;2024-03-06T08:26:12;6.40;99.90
8611;DHT22;4343;53.648;10.098;2024-03-06T08:28:38;6.40;99.90
8611;DHT22;4343;53.648;10.098;2024-03-06T08:31:03;6.50;99.90
8611;DHT22;4343;53.648;10.098;2024-03-06T08:33:29;6.60;99.90
8611;DHT22;4343;53.648;10.098;2024-03-06T08:35:54;6.70;99.90
8611;DHT22;4343;53.648;10.098;2024-03-06T08:38:20;6.80;99.90
8611;DHT22;4343;53.648;10.098;2024-03-06T08:40:45;6.90;99.90
8611;DHT22;4343;53.648;10.098;2024-03-06T08:43:14;6.90;99.90
8611;DHT22;4343;53.648;10.098;2024-03-06T08:45:40;7.00;99.90
8611;DHT22;4343;53.648;10.098;2024-03-06T08:48:06;7.00;99.90
8611;DHT22;4343;53.648;10.098;2024-03-06T08:50:32;7.10;99.90
8611;DHT22;4343;53.648;10.098;2024-03-06T08:52:57;7.20;99.90
8611;DHT22;4343;53.648;10.098;2024-03-06T08:55:22;7.20;99.90
8611;DHT22;4343;53.648;10.098;2024-03-06T08:57:48;7.30;99.90
8611;DHT22;4343;53.648;10.098;2024-03-06T09:00:15;7.30;99.90
8611;DHT22;4343;53.648;10.098;2024-03-06T09:02:42;7.30;99.90
8611;DHT22;4343;53.648;10.098;2024-03-06T09:05:07;7.40;99.90
8611;DHT22;4343;53.648;10.098;2024-03-06T09:07:38;7.40;99.90
8611;DHT22;4343;53.648;10.098;2024-03-06T09:10:08;7.40;99.90
8611;DHT22;4343;53.648;10.098;2024-03-06T09:12:35;7.50;99.90
8611;DHT22;4343;53.648;10.098;2024-03-06T09:15:01;7.50;99.90
8611;DHT22;4343;53.648;10.098;2024-03-06T09:17:26;7.60;99.90
8611;DHT22;4343;53.648;10.098;2024-03-06T09:19:52;7.60;99.90
8611;DHT22;4343;53.648;10.098;2024-03-06T09:22:17;7.70;99.90
8611;DHT22;4343;53.648;10.098;2024-03-06T09:24:43;7.70;99.90
8611;DHT22;4343;53.648;10.098;2024-03-06T09:27:08;7.80;99.90
8611;DHT22;4343;53.648;10.098;2024-03-06T09:29:34;7.80;99.90
8611;DHT22;4343;53.648;10.098;2024-03-06T09:31:59;7.80;99.90
8611;DHT22;4343;53.648;10.098;2024-03-06T09:34:25;7.90;99.90
8611;DHT22;4343;53.648;10.098;2024-03-06T09:36:51;7.90;99.90
8611;DHT22;4343;53.648;10.098;2024-03-06T09:39:17;8.00;99.90
8611;DHT22;4343;53.648;10.098;2024-03-06T09:41:46;8.00;99.90
8611;DHT22;4343;53.648;10.098;2024-03-06T09:44:12;8.00;99.90
8611;DHT22;4343;53.648;10.098;2024-03-06T09:46:41;8.10;99.90
8611;DHT22;4343;53.648;10.098;2024-03-06T09:49:07;8.10;99.90
8611;DHT22;4343;53.648;10.098;2024-03-06T09:51:35;8.10;99.90
8611;DHT22;4343;53.648;10.098;2024-03-06T09:54:00;8.10;99.90
8611;DHT22;4343;53.648;10.098;2024-03-06T09:56:26;8.10;99.90
8611;DHT22;4343;53.648;10.098;2024-03-06T09:58:52;8.10;99.90
8611;DHT22;4343;53.648;10.098;2024-03-06T10:01:19;8.20;99.90
8611;DHT22;4343;53.648;10.098;2024-03-06T10:03:44;8.30;99.90
8611;DHT22;4343;53.648;10.098;2024-03-06T10:06:11;8.40;99.90
8611;DHT22;4343;53.648;10.098;2024-03-06T10:08:41;8.40;99.90
8611;DHT22;4343;53.648;10.098;2024-03-06T10:11:06;8.50;99.90
8611;DHT22;4343;53.648;10.098;2024-03-06T10:13:32;8.60;99.90
8611;DHT22;4343;53.648;10.098;2024-03-06T10:15:59;8.70;99.90
8611;DHT22;4343;53.648;10.098;2024-03-06T10:18:28;8.70;99.90
8611;DHT22;4343;53.648;10.098;2024-03-06T10:20:54;8.80;99.90
8611;DHT22;4343;53.648;10.098;2024-03-06T10:23:19;8.80;99.90
8611;DHT22;4343;53.648;10.098;2024-03-06T10:25:49;8.90;99.90
8611;DHT22;4343;53.648;10.098;2024-03-06T10:28:21;9.00;99.90
8611;DHT22;4343;53.648;10.098;2024-03-06T10:30:48;9.20;99.90
8611;DHT22;4343;53.648;10.098;2024-03-06T10:33:14;9.30;99.90
8611;DHT22;4343;53.648;10.098;2024-03-06T10:35:40;9.50;99.90
8611;DHT22;4343;53.648;10.098;2024-03-06T10:38:06;9.70;99.90
8611;DHT22;4343;53.648;10.098;2024-03-06T10:40:33;9.80;99.90
8611;DHT22;4343;53.648;10.098;2024-03-06T10:42:59;9.90;99.90
8611;DHT22;4343;53.648;10.098;2024-03-06T10:45:32;10.00;99.90
8611;DHT22;4343;53.648;10.098;2024-03-06T10:48:00;10.00;99.90
8611;DHT22;4343;53.648;10.098;2024-03-06T10:50:27;10.10;99.90
8611;DHT22;4343;53.648;10.098;2024-03-06T10:52:55;10.00;99.90
8611;DHT22;4343;53.648;10.098;2024-03-06T10:55:21;10.00;99.90
8611;DHT22;4343;53.648;10.098;2024-03-06T10:57:47;9.90;99.90
8611;DHT22;4343;53.648;10.098;2024-03-06T11:00:14;9.80;99.90
8611;DHT22;4343;53.648;10.098;2024-03-06T11:02:47;9.70;99.90
8611;DHT22;4343;53.648;10.098;2024-03-06T11:05:16;9.70;99.90
8611;DHT22;4343;53.648;10.098;2024-03-06T11:07:42;9.60;99.90
8611;DHT22;4343;53.648;10.098;2024-03-06T11:10:09;9.60;99.90
8611;DHT22;4343;53.648;10.098;2024-03-06T11:12:41;9.60;99.90
8611;DHT22;4343;53.648;10.098;2024-03-06T11:15:16;9.60;99.90
8611;DHT22;4343;53.648;10.098;2024-03-06T11:17:44;9.60;99.90
8611;DHT22;4343;53.648;10.098;2024-03-06T11:20:16;9.70;99.90
8611;DHT22;4343;53.648;10.098;2024-03-06T11:28:16;10.20;99.90
8611;DHT22;4343;53.648;10.098;2024-03-06T11:30:45;10.40;99.90
8611;DHT22;4343;53.648;10.098;2024-03-06T11:33:12;10.50;99.90
8611;DHT22;4343;53.648;10.098;2024-03-06T11:35:38;10.70;99.90
8611;DHT22;4343;53.648;10.098;2024-03-06T11:38:05;10.80;99.90
8611;DHT22;4343;53.648;10.098;2024-03-06T11:40:31;11.00;99.90
8611;DHT22;4343;53.648;10.098;2024-03-06T11:42:57;11.10;99.90
8611;DHT22;4343;53.648;10.098;2024-03-06T11:45:45;11.10;99.90
8611;DHT22;4343;53.648;10.098;2024-03-06T11:48:11;11.10;99.90
8611;DHT22;4343;53.648;10.098;2024-03-06T11:50:42;11.10;99.90
8611;DHT22;4343;53.648;10.098;2024-03-06T11:53:08;11.10;99.90
8611;DHT22;4343;53.648;10.098;2024-03-06T11:55:34;11.00;99.90
8611;DHT22;4343;53.648;10.098;2024-03-06T11:57:59;10.90;99.90
8611;DHT22;4343;53.648;10.098;2024-03-06T12:00:24;10.90;99.90
8611;DHT22;4343;53.648;10.098;2024-03-06T12:02:50;10.80;99.90
8611;DHT22;4343;53.648;10.098;2024-03-06T12:05:17;10.70;99.90
8611;DHT22;4343;53.648;10.098;2024-03-06T12:07:52;10.70;99.90
8611;DHT22;4343;53.648;10.098;2024-03-06T12:10:17;10.60;99.90
8611;DHT22;4343;53.648;10.098;2024-03-06T12:12:43;10.50;99.90
8611;DHT22;4343;53.648;10.098;2024-03-06T12:15:10;10.40;99.90
8611;DHT22;4343;53.648;10.098;2024-03-06T12:17:49;10.10;99.90
8611;DHT22;4343;53.648;10.098;2024-03-06T12:20:15;10.00;99.90
8611;DHT22;4343;53.648;10.098;2024-03-06T12:25:10;9.90;99.90
8611;DHT22;4343;53.648;10.098;2024-03-06T12:27:35;9.80;99.90
8611;DHT22;4343;53.648;10.098;2024-03-06T12:30:01;9.80;99.90
8611;DHT22;4343;53.648;10.098;2024-03-06T12:32:29;9.90;99.90
8611;DHT22;4343;53.648;10.098;2024-03-06T12:34:56;9.90;99.90
8611;DHT22;4343;53.648;10.098;2024-03-06T12:37:28;9.90;99.90
8611;DHT22;4343;53.648;10.098;2024-03-06T12:39:55;9.90;99.90
8611;DHT22;4343;53.648;10.098;2024-03-06T12:42:20;9.90;99.90
8611;DHT22;4343;53.648;10.098;2024-03-06T12:44:45;9.90;99.90
8611;DHT22;4343;53.648;10.098;2024-03-06T12:47:11;10.00;99.90
8611;DHT22;4343;53.648;10.098;2024-03-06T12:49:36;10.10;99.90
8611;DHT22;4343;53.648;10.098;2024-03-06T12:52:02;10.20;99.90
8611;DHT22;4343;53.648;10.098;2024-03-06T12:54:29;10.30;99.90
8611;DHT22;4343;53.648;10.098;2024-03-06T12:56:55;10.50;99.90
8611;DHT22;4343;53.648;10.098;2024-03-06T12:59:22;10.70;99.90
8611;DHT22;4343;53.648;10.098;2024-03-06T13:01:47;10.90;99.90
8611;DHT22;4343;53.648;10.098;2024-03-06T13:04:13;11.10;99.90
8611;DHT22;4343;53.648;10.098;2024-03-06T13:06:39;11.30;99.90
8611;DHT22;4343;53.648;10.098;2024-03-06T13:09:05;11.50;99.90
8611;DHT22;4343;53.648;10.098;2024-03-06T13:11:32;11.70;99.90
8611;DHT22;4343;53.648;10.098;2024-03-06T13:13:58;11.90;99.90
8611;DHT22;4343;53.648;10.098;2024-03-06T13:16:23;12.00;99.90
8611;DHT22;4343;53.648;10.098;2024-03-06T13:18:49;12.20;99.90
8611;DHT22;4343;53.648;10.098;2024-03-06T13:21:20;12.30;99.90
8611;DHT22;4343;53.648;10.098;2024-03-06T13:23:45;12.40;99.90
8611;DHT22;4343;53.648;10.098;2024-03-06T13:26:11;12.50;99.90
8611;DHT22;4343;53.648;10.098;2024-03-06T13:28:38;12.50;99.90
8611;DHT22;4343;53.648;10.098;2024-03-06T13:31:04;12.50;99.90
8611;DHT22;4343;53.648;10.098;2024-03-06T13:33:31;12.40;99.90
8611;DHT22;4343;53.648;10.098;2024-03-06T13:35:57;12.40;99.90
8611;DHT22;4343;53.648;10.098;2024-03-06T13:38:22;12.30;99.90
8611;DHT22;4343;53.648;10.098;2024-03-06T13:40:48;12.20;99.90
8611;DHT22;4343;53.648;10.098;2024-03-06T13:43:13;12.20;99.90
8611;DHT22;4343;53.648;10.098;2024-03-06T13:45:47;12.00;99.90
8611;DHT22;4343;53.648;10.098;2024-03-06T13:48:13;12.00;99.90
8611;DHT22;4343;53.648;10.098;2024-03-06T13:50:40;11.90;99.90
8611;DHT22;4343;53.648;10.098;2024-03-06T13:53:07;11.80;99.90
8611;DHT22;4343;53.648;10.098;2024-03-06T13:55:32;11.70;99.90
8611;DHT22;4343;53.648;10.098;2024-03-06T13:57:58;11.60;99.90
8611;DHT22;4343;53.648;10.098;2024-03-06T14:00:24;11.50;99.90
8611;DHT22;4343;53.648;10.098;2024-03-06T14:02:49;11.40;99.90
8611;DHT22;4343;53.648;10.098;2024-03-06T14:05:14;11.30;99.90
8611;DHT22;4343;53.648;10.098;2024-03-06T14:07:40;11.20;99.90
8611;DHT22;4343;53.648;10.098;2024-03-06T14:10:06;11.10;99.90
8611;DHT22;4343;53.648;10.098;2024-03-06T14:12:33;11.10;99.90
8611;DHT22;4343;53.648;10.098;2024-03-06T14:15:00;11.00;99.90
8611;DHT22;4343;53.648;10.098;2024-03-06T14:17:26;11.00;99.90
8611;DHT22;4343;53.648;10.098;2024-03-06T14:19:51;11.00;99.90
8611;DHT22;4343;53.648;10.098;2024-03-06T14:22:17;10.90;99.90
8611;DHT22;4343;53.648;10.098;2024-03-06T14:24:42;11.00;99.90
8611;DHT22;4343;53.648;10.098;2024-03-06T14:27:07;11.00;99.90
8611;DHT22;4343;53.648;10.098;2024-03-06T14:29:34;11.20;99.90
8611;DHT22;4343;53.648;10.098;2024-03-06T14:31:59;11.30;99.90
8611;DHT22;4343;53.648;10.098;2024-03-06T14:34:25;11.40;99.90
8611;DHT22;4343;53.648;10.098;2024-03-06T14:36:51;11.60;99.90
8611;DHT22;4343;53.648;10.098;2024-03-06T14:39:17;11.70;99.90
8611;DHT22;4343;53.648;10.098;2024-03-06T14:41:44;11.90;99.90
8611;DHT22;4343;53.648;10.098;2024-03-06T14:44:12;12.00;99.90
8611;DHT22;4343;53.648;10.098;2024-03-06T14:46:39;12.20;99.90
8611;DHT22;4343;53.648;10.098;2024-03-06T14:49:05;12.30;99.90
8611;DHT22;4343;53.648;10.098;2024-03-06T14:51:30;12.50;99.90
8611;DHT22;4343;53.648;10.098;2024-03-06T14:53:56;12.50;99.90
8611;DHT22;4343;53.648;10.098;2024-03-06T14:56:21;12.60;99.90
8611;DHT22;4343;53.648;10.098;2024-03-06T14:58:47;12.60;99.90
8611;DHT22;4343;53.648;10.098;2024-03-06T15:01:13;12.70;99.90
8611;DHT22;4343;53.648;10.098;2024-03-06T15:03:38;12.60;99.90
8611;DHT22;4343;53.648;10.098;2024-03-06T15:06:05;12.60;99.90
8611;DHT22;4343;53.648;10.098;2024-03-06T15:08:32;12.60;99.90
8611;DHT22;4343;53.648;10.098;2024-03-06T15:10:58;12.60;99.90
8611;DHT22;4343;53.648;10.098;2024-03-06T15:13:23;12.50;99.90
8611;DHT22;4343;53.648;10.098;2024-03-06T15:15:49;12.50;99.90
8611;DHT22;4343;53.648;10.098;2024-03-06T15:18:14;12.40;99.90
8611;DHT22;4343;53.648;10.098;2024-03-06T15:20:40;12.30;99.90
8611;DHT22;4343;53.648;10.098;2024-03-06T15:23:05;12.10;99.90
8611;DHT22;4343;53.648;10.098;2024-03-06T15:25:30;12.00;99.90
8611;DHT22;4343;53.648;10.098;2024-03-06T15:27:56;11.90;99.90
8611;DHT22;4343;53.648;10.098;2024-03-06T15:30:22;11.80;99.90
8611;DHT22;4343;53.648;10.098;2024-03-06T15:32:47;11.70;99.90
8611;DHT22;4343;53.648;10.098;2024-03-06T15:35:13;11.60;99.90
8611;DHT22;4343;53.648;10.098;2024-03-06T15:37:38;11.40;99.90
8611;DHT22;4343;53.648;10.098;2024-03-06T15:40:04;11.40;99.90
8611;DHT22;4343;53.648;10.098;2024-03-06T15:42:31;11.30;99.90
8611;DHT22;4343;53.648;10.098;2024-03-06T15:44:57;11.30;99.90
8611;DHT22;4343;53.648;10.098;2024-03-06T15:47:22;11.20;99.90
8611;DHT22;4343;53.648;10.098;2024-03-06T15:49:48;11.20;99.90
8611;DHT22;4343;53.648;10.098;2024-03-06T15:52:14;11.10;99.90
8611;DHT22;4343;53.648;10.098;2024-03-06T15:54:40;11.00;99.90
8611;DHT22;4343;53.648;10.098;2024-03-06T15:57:06;10.80;99.90